WetterOnline ( https://www.wetteronline.de )

Wetter aktuell Regensburg

Aktuelles Wetter: Regensburg/Oberhub (371m)

6-stündlich | Neueste Meldungen
Ortszeit Temperatur Wetter
Do, 22.02. 19:00 9.1° C leichter Regen
Do, 22.02. 13:00 9.1° C leichter Regen
Do, 22.02. 7:00 8.1° C leichter Regen
Do, 22.02. 1:00 7.2° C bedeckt
Mi, 21.02. 19:00 9.1° C bedeckt
Mi, 21.02. 13:00 11.9° C leicht bewölkt
Mi, 21.02. 7:00 5.1° C bewölkt
Mi, 21.02. 1:00 5.2° C bedeckt
Ortszeit Temperatur Wetter
Fr, 23.02. 0:30 8.3° C Regen
Fr, 23.02. 0:20 8.3° C Regen
Fr, 23.02. 0:10 8.3° C Regen
Fr, 23.02. 0:00 8.3° C leichter Regen
Do, 22.02. 23:50 8.3° C leichter Regen
Do, 22.02. 23:40 8.5° C leichter Regen
Do, 22.02. 23:30 8.6° C leichter Regen
Do, 22.02. 23:00 8.6° C leichter Regen
Do, 22.02. 22:30 8.6° C leichter Regen
Do, 22.02. 22:00 8.8° C leichter Regen
Do, 22.02. 21:30 8.8° C leichter Regen
Ortszeit Relative Feuchte Sichtweite
Do, 22.02. 19:00 93% 16 km
Do, 22.02. 13:00 86% 35 km
Do, 22.02. 7:00 87% 15 km
Do, 22.02. 1:00 68% 55 km
Mi, 21.02. 19:00 63% 50 km
Mi, 21.02. 13:00 53% 40 km
Mi, 21.02. 7:00 78% 45 km
Mi, 21.02. 1:00 76% 40 km
Ortszeit Relative Feuchte Sichtweite
Fr, 23.02. 0:30 97% 0.8 km
Fr, 23.02. 0:20 97% -
Fr, 23.02. 0:10 97% -
Fr, 23.02. 0:00 97% 3.0 km
Do, 22.02. 23:50 97% -
Do, 22.02. 23:40 95% -
Do, 22.02. 23:30 96% 10 km
Do, 22.02. 23:00 96% 11 km
Do, 22.02. 22:30 96% 12 km
Do, 22.02. 22:00 95% 16 km
Do, 22.02. 21:30 95% 15 km
Ortszeit Niederschlagsmenge Niederschlagsart
Do, 22.02. 19:00 9 l/m2 in 12 Std. Regen
Do, 22.02. 13:00 6 l/m2 in 6 Std. Regen
Do, 22.02. 7:00 2 l/m2 in 12 Std. Regen
Do, 22.02. 1:00 0.1 l/m2 in 6 Std. Regen
Mi, 21.02. 19:00 0.0 l/m2 in 12 Std. -
Mi, 21.02. 13:00 0.0 l/m2 in 6 Std. -
Mi, 21.02. 7:00 0.1 l/m2 in 12 Std. Regen
Mi, 21.02. 1:00 0.0 l/m2 in 6 Std. -
Ortszeit Niederschlagsmenge Niederschlagsart
Fr, 23.02. 0:30 1.5 l/m2 in 30 Min -
Fr, 23.02. 0:20 keine Meldung -
Fr, 23.02. 0:10 keine Meldung -
Fr, 23.02. 0:00 0.3 l/m2 in 1 Std. Regen
Do, 22.02. 23:50 keine Meldung -
Do, 22.02. 23:40 keine Meldung -
Do, 22.02. 23:30 0.2 l/m2 in 30 Min -
Do, 22.02. 23:00 0.5 l/m2 in 1 Std. Regen
Do, 22.02. 22:30 0.1 l/m2 in 30 Min -
Do, 22.02. 22:00 0.7 l/m2 in 1 Std. Regen
Do, 22.02. 21:30 0.4 l/m2 in 30 Min -
Ortszeit Stärke Spitze Richtung
km/h Bft. km/h Grad Sektor
Do, 22.02. 19:00 9 2 39 170° S
Do, 22.02. 13:00 13 3 56 210° SW
Do, 22.02. 7:00 22 4 47 220° SW
Do, 22.02. 1:00 14 3 29 140° SO
Mi, 21.02. 19:00 9 2 28 140° SO
Mi, 21.02. 13:00 9 2 20 170° S
Mi, 21.02. 7:00 7 2 22 170° S
Mi, 21.02. 1:00 4 1 14 210° SW
Ortszeit Stärke Spitze Richtung
km/h Bft. km/h Grad Sektor
Fr, 23.02. 0:30 4 1 22 180° S
Fr, 23.02. 0:20 4 1 - 180° S
Fr, 23.02. 0:10 7 2 - 170° S
Fr, 23.02. 0:00 11 2 25 150° SO
Do, 22.02. 23:50 11 2 - 150° SO
Do, 22.02. 23:40 11 2 - 150° SO
Do, 22.02. 23:30 13 3 26 150° SO
Do, 22.02. 23:00 13 3 26 160° S
Do, 22.02. 22:30 15 3 26 140° SO
Do, 22.02. 22:00 13 3 26 140° SO
Do, 22.02. 21:30 15 3 22 140° SO
Ortszeit Untergrenze Bedeckung Gattung
total tief tief mittel hoch
Do, 22.02. 19:00 300 m 8/8 8/8 - - -
Do, 22.02. 13:00 480 m 8/8 8/8 - - -
Do, 22.02. 7:00 1110 m 7/8 7/8 - - -
Do, 22.02. 1:00 1380 m 8/8 8/8 - - -
Mi, 21.02. 19:00 3300 m 8/8 8/8 - - -
Mi, 21.02. 13:00 7800 m 8/8 0/8 - - -
Mi, 21.02. 7:00 1290 m 8/8 7/8 - - -
Mi, 21.02. 1:00 1800 m 8/8 8/8 - - -
Ortszeit Bedeckungsgrad in Achtel und Wolkenuntergrenze
Fr, 23.02. 0:30 7(60m) 7(450m)
Fr, 23.02. 0:20 7(60m) 7(450m)
Fr, 23.02. 0:10 7
Fr, 23.02. 0:00 7(60m) 7(1500m)
Do, 22.02. 23:50 7(60m) 7(1500m)
Do, 22.02. 23:40 8
Do, 22.02. 23:30 7(90m) 8(240m) 8(1800m)
Do, 22.02. 23:00 8(60m)
Do, 22.02. 22:30 7(60m) 8(1500m)
Do, 22.02. 22:00 6(1470m) 8(1800m)
Do, 22.02. 21:30 7(1500m)
Ortszeit Luftdruck NN (hPa) Tendenz (hPa in 3 Std.)
Do, 22.02. 19:00 996 - 1,1
Do, 22.02. 13:00 1001 - 2,5
Do, 22.02. 7:00 1006 - 1,6
Do, 22.02. 1:00 1012 - 2,0
Mi, 21.02. 19:00 1016 - 2,0
Mi, 21.02. 13:00 1021 - 2,7
Mi, 21.02. 7:00 1025 - 1,4
Mi, 21.02. 1:00 1028 - 0,6
Ortszeit Luftdruck NN (hPa) Tendenz (hPa in 3 Std.)
Fr, 23.02. 0:30 995 + 0,4
Fr, 23.02. 0:20 995 keine Meldung
Fr, 23.02. 0:10 995 keine Meldung
Fr, 23.02. 0:00 994 - 0,8
Do, 22.02. 23:50 994 keine Meldung
Do, 22.02. 23:40 994 keine Meldung
Do, 22.02. 23:30 994 - 1,3
Do, 22.02. 23:00 994 - 1,5
Do, 22.02. 22:30 994 - 1,8
Do, 22.02. 22:00 995 - 1,7
Do, 22.02. 21:30 995 - 1,5
Ortszeit Schneehöhe (cm)
Do, 22.02. 19:00 0
Do, 22.02. 13:00 0
Do, 22.02. 7:00 0
Do, 22.02. 1:00 0
Mi, 21.02. 19:00 0
Mi, 21.02. 13:00 0
Mi, 21.02. 7:00 0
Mi, 21.02. 1:00 0
Ortszeit Schneehöhe (cm)
Fr, 23.02. 0:30 0
Fr, 23.02. 0:20 0
Fr, 23.02. 0:10 -
Fr, 23.02. 0:00 0
Do, 22.02. 23:50 0
Do, 22.02. 23:40 -
Do, 22.02. 23:30 0
Do, 22.02. 23:00 0
Do, 22.02. 22:30 0
Do, 22.02. 22:00 0
Do, 22.02. 21:30 0
Link zu dieser Seite / Seite empfehlen

Das Wetter in ...